createdAt,value
2023-05-02T00:02:15.396Z,101891.97
2023-05-02T00:04:44.669Z,101892.06
2023-05-02T00:07:12.532Z,101892.28
2023-05-02T00:09:40.299Z,101892.22
2023-05-02T00:12:07.932Z,101895.81
2023-05-02T00:14:35.593Z,101898.06
2023-05-02T00:17:03.438Z,101903.06
2023-05-02T00:19:31.145Z,101888.94
2023-05-02T00:22:00.156Z,101902.97
2023-05-02T00:24:27.918Z,101896.97
2023-05-02T00:26:55.759Z,101897.59
2023-05-02T00:29:23.490Z,101899.00
2023-05-02T00:31:51.215Z,101900.69
2023-05-02T00:34:18.944Z,101904.78
2023-05-02T00:36:47.045Z,101912.31
2023-05-02T00:39:16.535Z,101905.28
2023-05-02T00:41:44.331Z,101911.31
2023-05-02T00:44:12.050Z,101910.59
2023-05-02T00:46:39.880Z,101906.59
2023-05-02T00:49:07.607Z,101908.25
2023-05-02T00:51:35.353Z,101908.38
2023-05-02T00:54:03.256Z,101915.91
2023-05-02T00:56:32.329Z,101903.31
2023-05-02T00:59:01.456Z,101900.72
2023-05-02T01:01:48.594Z,101900.25
2023-05-02T01:04:31.303Z,101912.22
2023-05-02T01:07:11.660Z,101903.69
2023-05-02T01:09:53.505Z,101900.81
2023-05-02T01:12:29.837Z,101917.66
2023-05-02T01:14:59.599Z,101918.25
2023-05-02T01:17:29.977Z,101912.91
2023-05-02T01:20:00.801Z,101926.97
2023-05-02T01:22:30.731Z,101928.06
2023-05-02T01:25:05.505Z,101935.25
2023-05-02T01:27:44.410Z,101937.03
2023-05-02T01:30:16.119Z,101942.28
2023-05-02T01:32:47.226Z,101939.97
2023-05-02T01:35:17.363Z,101939.19
2023-05-02T01:37:46.970Z,101959.25
2023-05-02T01:40:19.491Z,101963.19
2023-05-02T01:42:49.052Z,101965.44
2023-05-02T01:45:20.049Z,101977.09
2023-05-02T01:47:48.711Z,101985.28
2023-05-02T01:50:23.000Z,101979.53
2023-05-02T01:52:52.506Z,101982.81
2023-05-02T01:55:21.103Z,101991.38
2023-05-02T01:57:51.697Z,101991.81
2023-05-02T02:00:23.169Z,102008.44
2023-05-02T02:02:53.110Z,102004.41
2023-05-02T02:05:21.848Z,102017.09
2023-05-02T02:07:49.621Z,102028.59
2023-05-02T02:10:19.321Z,102027.03
2023-05-02T02:12:53.755Z,102033.06
2023-05-02T02:15:28.397Z,102040.09
2023-05-02T02:18:00.299Z,102044.16
2023-05-02T02:20:31.908Z,102052.75
2023-05-02T02:23:03.025Z,102052.63
2023-05-02T02:25:30.838Z,102061.81
2023-05-02T02:27:59.112Z,102064.53
2023-05-02T02:30:29.982Z,102070.72
2023-05-02T02:32:58.041Z,102077.91
2023-05-02T02:35:35.006Z,102082.63
2023-05-02T02:38:12.450Z,102089.53
2023-05-02T02:40:46.078Z,102094.69
2023-05-02T02:43:21.868Z,102085.22
2023-05-02T02:46:18.285Z,102090.50
2023-05-02T02:48:55.652Z,102101.22
2023-05-02T02:51:31.920Z,102108.00
2023-05-02T02:54:19.084Z,102115.56
2023-05-02T02:57:02.219Z,102125.34
2023-05-02T02:59:32.994Z,102116.19
2023-05-02T03:02:08.410Z,102123.28
2023-05-02T03:04:39.282Z,102131.34
2023-05-02T03:07:07.225Z,102139.53
2023-05-02T03:09:44.437Z,102144.94
2023-05-02T03:12:16.711Z,102144.13
2023-05-02T03:14:45.623Z,102145.69
2023-05-02T03:17:14.862Z,102160.59
2023-05-02T03:19:43.216Z,102158.69
2023-05-02T03:22:11.317Z,102155.56
2023-05-02T03:24:39.360Z,102164.63
2023-05-02T03:27:07.171Z,102171.03
2023-05-02T03:29:41.063Z,102173.47
2023-05-02T03:32:10.559Z,102179.69
2023-05-02T03:34:41.722Z,102184.53
2023-05-02T03:37:09.869Z,102183.50
2023-05-02T03:39:37.692Z,102185.97
2023-05-02T03:42:06.603Z,102193.03
2023-05-02T03:44:34.450Z,102192.31
2023-05-02T03:47:03.370Z,102189.25
2023-05-02T03:49:36.870Z,102198.44
2023-05-02T03:52:06.773Z,102196.88
2023-05-02T03:54:36.726Z,102211.81
2023-05-02T03:57:06.256Z,102210.31
2023-05-02T03:59:35.198Z,102218.09
2023-05-02T04:02:11.277Z,102219.31
2023-05-02T04:04:43.525Z,102216.44
2023-05-02T04:07:18.485Z,102218.28
2023-05-02T04:09:49.454Z,102222.41
2023-05-02T04:12:17.299Z,102223.47
2023-05-02T04:14:48.802Z,102221.19
2023-05-02T04:17:17.397Z,102230.31
2023-05-02T04:19:51.428Z,102237.63
2023-05-02T04:22:21.834Z,102237.78
2023-05-02T04:25:03.454Z,102241.75
2023-05-02T04:27:32.248Z,102246.16
2023-05-02T04:30:00.999Z,102252.66
2023-05-02T04:32:29.203Z,102247.53
2023-05-02T04:34:58.577Z,102252.81
2023-05-02T04:37:28.734Z,102253.72
2023-05-02T04:39:56.800Z,102257.00
2023-05-02T04:42:27.668Z,102261.16
2023-05-02T04:45:06.614Z,102258.47
2023-05-02T04:47:34.466Z,102262.28
2023-05-02T04:50:02.518Z,102269.28
2023-05-02T04:52:32.809Z,102265.72
2023-05-02T04:55:00.665Z,102281.38
2023-05-02T04:57:29.067Z,102286.59
2023-05-02T04:59:59.929Z,102280.78
2023-05-02T05:02:28.759Z,102289.06
2023-05-02T05:04:58.566Z,102280.09
2023-05-02T05:07:26.704Z,102291.75
2023-05-02T05:09:57.905Z,102292.13
2023-05-02T05:12:28.988Z,102300.19
2023-05-02T05:14:57.326Z,102297.78
2023-05-02T05:17:27.626Z,102300.25
2023-05-02T05:19:55.846Z,102305.31
2023-05-02T05:22:23.900Z,102312.97
2023-05-02T05:24:54.970Z,102322.22
2023-05-02T05:27:29.611Z,102325.88
2023-05-02T05:29:57.921Z,102320.53
2023-05-02T05:32:26.201Z,102327.72
2023-05-02T05:34:54.992Z,102335.31
2023-05-02T05:37:26.231Z,102332.19
2023-05-02T05:39:54.080Z,102334.50
2023-05-02T05:42:21.958Z,102344.28
2023-05-02T05:44:54.793Z,102344.31
2023-05-02T05:47:22.990Z,102346.44
2023-05-02T05:49:55.064Z,102353.41
2023-05-02T05:52:26.269Z,102355.94
2023-05-02T05:54:56.747Z,102363.19
2023-05-02T05:57:26.115Z,102365.09
2023-05-02T05:59:56.767Z,102362.38
2023-05-02T06:02:24.906Z,102367.69
2023-05-02T06:04:52.926Z,102380.50
2023-05-02T06:07:23.892Z,102385.13
2023-05-02T06:09:51.812Z,102385.22
2023-05-02T06:12:19.782Z,102394.16
2023-05-02T06:14:48.488Z,102397.50
2023-05-02T06:17:18.077Z,102395.38
2023-05-02T06:19:46.046Z,102397.50
2023-05-02T06:22:14.267Z,102404.81
2023-05-02T06:24:42.556Z,102398.09
2023-05-02T06:27:10.347Z,102411.13
2023-05-02T06:29:38.177Z,102412.84
2023-05-02T06:32:06.613Z,102418.69
2023-05-02T06:34:36.062Z,102423.25
2023-05-02T06:37:03.910Z,102423.34
2023-05-02T06:39:31.758Z,102440.59
2023-05-02T06:41:59.798Z,102439.13
2023-05-02T06:44:29.010Z,102451.25
2023-05-02T06:46:56.887Z,102450.13
2023-05-02T06:49:25.123Z,102449.13
2023-05-02T06:51:54.427Z,102448.53
2023-05-02T06:54:22.365Z,102450.78
2023-05-02T06:56:50.250Z,102458.34
2023-05-02T06:59:18.286Z,102459.69
2023-05-02T07:01:46.203Z,102459.16
2023-05-02T07:04:14.444Z,102457.53
2023-05-02T07:06:42.314Z,102457.53
2023-05-02T07:09:11.820Z,102455.41
2023-05-02T07:11:39.661Z,102465.63
2023-05-02T07:14:07.518Z,102463.94
2023-05-02T07:16:35.534Z,102464.66
2023-05-02T07:19:04.768Z,102468.00
2023-05-02T07:21:32.718Z,102484.47
2023-05-02T07:24:00.800Z,102482.34
2023-05-02T07:26:30.940Z,102485.19
2023-05-02T07:28:58.751Z,102485.78
2023-05-02T07:31:26.683Z,102495.34
2023-05-02T07:33:54.506Z,102490.03
2023-05-02T07:36:22.325Z,102490.38
2023-05-02T07:38:50.873Z,102490.53
2023-05-02T07:41:19.178Z,102494.97
2023-05-02T07:43:49.049Z,102497.44
2023-05-02T07:46:17.004Z,102500.44
2023-05-02T07:48:44.913Z,102501.38
2023-05-02T07:51:12.861Z,102501.72
2023-05-02T07:53:40.655Z,102508.38
2023-05-02T07:56:09.527Z,102518.03
2023-05-02T07:58:37.737Z,102511.78
2023-05-02T08:01:07.108Z,102513.38
2023-05-02T08:03:35.045Z,102520.88
2023-05-02T08:06:04.096Z,102519.47
2023-05-02T08:08:32.020Z,102527.16
2023-05-02T08:10:59.863Z,102517.66
2023-05-02T08:13:28.401Z,102521.97
2023-05-02T08:15:58.192Z,102527.09
2023-05-02T08:18:28.283Z,102522.44
2023-05-02T08:20:56.966Z,102527.63
2023-05-02T08:23:24.906Z,102529.66
2023-05-02T08:25:52.843Z,102525.16
2023-05-02T08:28:20.606Z,102528.31
2023-05-02T08:30:49.164Z,102527.53
2023-05-02T08:33:17.092Z,102526.22
2023-05-02T08:35:46.729Z,102526.38
2023-05-02T08:38:14.579Z,102529.13
2023-05-02T08:40:43.404Z,102526.31
2023-05-02T08:43:12.794Z,102535.91
2023-05-02T08:45:42.257Z,102542.94
2023-05-02T08:48:11.818Z,102542.50
2023-05-02T08:50:41.854Z,102545.84
2023-05-02T08:53:13.692Z,102549.75
2023-05-02T08:55:43.199Z,102548.03
2023-05-02T08:58:13.970Z,102545.63
2023-05-02T09:00:44.280Z,102562.81
2023-05-02T09:03:23.783Z,102557.84
2023-05-02T09:05:55.560Z,102564.03
2023-05-02T09:08:25.689Z,102573.25
2023-05-02T09:10:53.758Z,102576.72
2023-05-02T09:13:36.074Z,102585.81
2023-05-02T09:16:06.326Z,102593.72
2023-05-02T09:18:36.159Z,102599.47
2023-05-02T09:21:08.973Z,102605.66
2023-05-02T09:23:41.114Z,102609.38
2023-05-02T09:26:22.583Z,102601.56
2023-05-02T09:28:52.612Z,102606.63
2023-05-02T09:31:43.467Z,102605.75
2023-05-02T09:34:11.667Z,102602.59
2023-05-02T09:36:43.966Z,102611.31
2023-05-02T09:39:15.197Z,102604.63
2023-05-02T09:41:43.764Z,102597.75
2023-05-02T09:44:12.698Z,102599.56
2023-05-02T09:46:46.115Z,102599.31
2023-05-02T09:49:14.790Z,102613.13
2023-05-02T09:51:44.072Z,102626.47
2023-05-02T09:54:14.020Z,102624.97
2023-05-02T09:56:56.704Z,102622.91
2023-05-02T09:59:25.399Z,102615.44
2023-05-02T10:01:58.204Z,102620.06
2023-05-02T10:04:27.308Z,102626.78
2023-05-02T10:06:56.671Z,102623.06
2023-05-02T10:09:27.161Z,102628.09
2023-05-02T10:11:56.667Z,102625.59
2023-05-02T10:14:27.818Z,102624.44
2023-05-02T10:17:02.221Z,102625.84
2023-05-02T10:19:32.734Z,102637.91
2023-05-02T10:22:01.227Z,102636.31
2023-05-02T10:24:33.665Z,102634.19
2023-05-02T10:27:02.406Z,102643.84
2023-05-02T10:29:32.610Z,102643.84
2023-05-02T10:32:02.443Z,102640.78
2023-05-02T10:34:33.887Z,102643.78
2023-05-02T10:37:02.296Z,102638.22
2023-05-02T10:39:33.698Z,102651.69
2023-05-02T10:42:04.406Z,102666.09
2023-05-02T10:44:35.704Z,102663.03
2023-05-02T10:47:20.255Z,102671.91
2023-05-02T10:49:53.128Z,102675.38
2023-05-02T10:52:29.216Z,102670.28
2023-05-02T10:55:20.120Z,102667.25
2023-05-02T10:58:23.713Z,102669.84
2023-05-02T11:00:51.929Z,102673.06
2023-05-02T11:03:58.922Z,102664.00
2023-05-02T11:06:28.414Z,102668.31
2023-05-02T11:09:32.733Z,102656.66
2023-05-02T11:12:04.755Z,102652.53
2023-05-02T11:14:50.101Z,102653.19
2023-05-02T11:17:21.221Z,102651.19
2023-05-02T11:20:28.708Z,102653.19
2023-05-02T11:22:59.347Z,102656.38
2023-05-02T11:25:38.744Z,102659.38
2023-05-02T11:28:29.595Z,102674.31
2023-05-02T11:30:58.218Z,102674.38
2023-05-02T11:33:26.753Z,102672.91
2023-05-02T11:35:56.988Z,102674.00
2023-05-02T11:38:26.613Z,102674.94
2023-05-02T11:41:00.253Z,102673.47
2023-05-02T11:43:31.748Z,102671.84
2023-05-02T11:46:02.551Z,102675.16
2023-05-02T11:48:31.912Z,102678.06
2023-05-02T11:51:05.261Z,102691.66
2023-05-02T11:53:34.085Z,102692.50
2023-05-02T11:56:04.306Z,102700.03
2023-05-02T11:58:34.380Z,102689.38
2023-05-02T12:01:14.298Z,102687.34
2023-05-02T12:03:42.597Z,102700.09
2023-05-02T12:06:12.668Z,102708.84
2023-05-02T12:08:41.615Z,102715.31
2023-05-02T12:11:10.343Z,102718.78
2023-05-02T12:13:46.033Z,102711.03
2023-05-02T12:16:14.392Z,102719.91
2023-05-02T12:18:42.608Z,102715.69
2023-05-02T12:21:13.853Z,102710.22
2023-05-02T12:23:42.293Z,102728.06
2023-05-02T12:26:21.298Z,102727.78
2023-05-02T12:28:51.674Z,102728.50
2023-05-02T12:31:20.778Z,102722.97
2023-05-02T12:33:50.875Z,102725.09
2023-05-02T12:36:19.487Z,102716.84
2023-05-02T12:38:52.530Z,102729.59
2023-05-02T12:41:29.843Z,102736.56
2023-05-02T12:44:00.630Z,102730.66
2023-05-02T12:46:29.471Z,102738.56
2023-05-02T12:49:05.627Z,102757.63
2023-05-02T12:51:34.590Z,102741.13
2023-05-02T12:54:02.889Z,102757.50
2023-05-02T12:56:32.523Z,102752.38
2023-05-02T12:59:05.106Z,102766.44
2023-05-02T13:01:35.079Z,102771.81
2023-05-02T13:04:03.277Z,102769.38
2023-05-02T13:06:31.365Z,102777.09
2023-05-02T13:09:00.197Z,102781.69
2023-05-02T13:11:28.139Z,102779.69
2023-05-02T13:13:56.582Z,102780.41
2023-05-02T13:16:26.257Z,102782.75
2023-05-02T13:18:54.313Z,102797.00
2023-05-02T13:21:22.243Z,102788.41
2023-05-02T13:23:51.849Z,102790.59
2023-05-02T13:26:19.872Z,102794.19
2023-05-02T13:28:47.718Z,102798.97
2023-05-02T13:31:15.766Z,102789.66
2023-05-02T13:33:45.014Z,102790.00
2023-05-02T13:36:12.873Z,102795.28
2023-05-02T13:38:40.705Z,102806.44
2023-05-02T13:41:09.263Z,102802.06
2023-05-02T13:43:37.304Z,102802.94
2023-05-02T13:46:05.306Z,102801.38
2023-05-02T13:48:33.219Z,102807.53
2023-05-02T13:51:02.538Z,102800.44
2023-05-02T13:53:30.617Z,102799.06
2023-05-02T13:55:58.433Z,102792.75
2023-05-02T13:58:26.393Z,102777.03
2023-05-02T14:00:54.309Z,102786.13
2023-05-02T14:03:22.701Z,102786.94
2023-05-02T14:05:51.041Z,102791.13
2023-05-02T14:08:20.383Z,102806.75
2023-05-02T14:10:48.286Z,102796.19
2023-05-02T14:13:16.145Z,102797.88
2023-05-02T14:15:44.236Z,102803.69
2023-05-02T14:18:12.182Z,102799.53
2023-05-02T14:20:40.038Z,102797.69
2023-05-02T14:23:07.987Z,102802.69
2023-05-02T14:25:37.824Z,102809.25
2023-05-02T14:28:06.382Z,102814.88
2023-05-02T14:30:34.571Z,102804.16
2023-05-02T14:33:03.189Z,102812.44
2023-05-02T14:35:31.281Z,102814.03
2023-05-02T14:37:59.162Z,102812.34
2023-05-02T14:40:27.683Z,102806.00
2023-05-02T14:42:57.872Z,102798.28
2023-05-02T14:45:26.368Z,102804.44
2023-05-02T14:47:54.295Z,102809.44
2023-05-02T14:50:22.487Z,102812.72
2023-05-02T14:52:50.401Z,102807.75
2023-05-02T14:55:18.512Z,102809.91
2023-05-02T14:57:46.332Z,102817.03
2023-05-02T15:00:17.467Z,102808.19
2023-05-02T15:02:45.467Z,102819.25
2023-05-02T15:05:13.619Z,102816.69
2023-05-02T15:07:41.426Z,102807.50
2023-05-02T15:10:10.527Z,102813.34
2023-05-02T15:12:38.420Z,102812.19
2023-05-02T15:15:09.131Z,102819.66
2023-05-02T15:17:38.382Z,102827.97
2023-05-02T15:20:07.562Z,102820.38
2023-05-02T15:22:35.421Z,102818.13
2023-05-02T15:25:05.306Z,102813.53
2023-05-02T15:27:33.289Z,102831.50
2023-05-02T15:30:03.250Z,102830.91
2023-05-02T15:32:31.895Z,102833.78
2023-05-02T15:35:01.746Z,102826.91
2023-05-02T15:37:30.410Z,102832.44
2023-05-02T15:40:00.127Z,102831.41
2023-05-02T15:42:28.770Z,102834.75
2023-05-02T15:44:57.238Z,102835.72
2023-05-02T15:47:26.040Z,102840.13
2023-05-02T15:49:56.022Z,102843.66
2023-05-02T15:52:25.962Z,102845.16
2023-05-02T15:54:56.312Z,102846.75
2023-05-02T15:57:26.487Z,102840.50
2023-05-02T15:59:54.344Z,102847.81
2023-05-02T16:02:22.321Z,102846.38
2023-05-02T16:04:50.182Z,102833.88
2023-05-02T16:07:19.299Z,102843.97
2023-05-02T16:09:49.192Z,102843.94
2023-05-02T16:12:17.102Z,102838.47
2023-05-02T16:14:45.039Z,102842.31
2023-05-02T16:17:13.080Z,102843.03
2023-05-02T16:19:41.055Z,102840.22
2023-05-02T16:22:08.838Z,102841.81
2023-05-02T16:24:36.613Z,102838.72
2023-05-02T16:27:05.922Z,102841.53
2023-05-02T16:29:33.915Z,102845.06
2023-05-02T16:32:01.850Z,102852.00
2023-05-02T16:34:32.727Z,102853.25
2023-05-02T16:37:02.552Z,102850.16
2023-05-02T16:39:31.753Z,102849.53
2023-05-02T16:41:59.641Z,102843.66
2023-05-02T16:44:30.356Z,102848.84
2023-05-02T16:46:58.317Z,102854.03
2023-05-02T16:49:26.248Z,102856.47
2023-05-02T16:51:55.452Z,102858.78
2023-05-02T16:54:23.389Z,102861.78
2023-05-02T16:56:51.525Z,102853.84
2023-05-02T16:59:19.438Z,102851.72
2023-05-02T17:01:49.948Z,102856.13
2023-05-02T17:04:17.905Z,102856.94
2023-05-02T17:06:45.958Z,102860.06
2023-05-02T17:09:14.159Z,102857.09
2023-05-02T17:11:41.945Z,102857.97
2023-05-02T17:14:10.362Z,102864.16
2023-05-02T17:16:38.523Z,102862.00
2023-05-02T17:19:07.763Z,102869.66
2023-05-02T17:21:35.976Z,102866.22
2023-05-02T17:24:03.956Z,102876.16
2023-05-02T17:26:32.009Z,102865.78
2023-05-02T17:29:00.028Z,102879.78
2023-05-02T17:31:28.058Z,102880.06
2023-05-02T17:33:56.059Z,102885.38
2023-05-02T17:36:25.339Z,102885.97
2023-05-02T17:38:53.471Z,102891.59
2023-05-02T17:41:21.472Z,102902.53
2023-05-02T17:43:49.656Z,102890.75
2023-05-02T17:46:17.497Z,102898.31
2023-05-02T17:48:45.555Z,102892.56
2023-05-02T17:51:13.485Z,102890.19
2023-05-02T17:53:43.462Z,102887.09
2023-05-02T17:56:12.982Z,102892.41
2023-05-02T17:58:41.068Z,102895.75
2023-05-02T18:01:10.741Z,102904.72
2023-05-02T18:03:39.310Z,102899.34
2023-05-02T18:06:07.815Z,102894.19
2023-05-02T18:08:36.637Z,102897.84
2023-05-02T18:11:05.861Z,102907.03
2023-05-02T18:13:36.125Z,102921.56
2023-05-02T18:16:06.115Z,102918.94
2023-05-02T18:18:36.320Z,102918.31
2023-05-02T18:21:04.682Z,102914.59
2023-05-02T18:23:32.664Z,102925.38
2023-05-02T18:26:00.843Z,102916.72
2023-05-02T18:28:30.281Z,102920.63
2023-05-02T18:30:58.353Z,102907.34
2023-05-02T18:33:26.664Z,102904.84
2023-05-02T18:35:54.605Z,102897.06
2023-05-02T18:38:22.734Z,102901.75
2023-05-02T18:40:50.659Z,102915.44
2023-05-02T18:43:18.622Z,102910.00
2023-05-02T18:45:48.167Z,102909.25
2023-05-02T18:48:16.147Z,102905.78
2023-05-02T18:50:44.235Z,102916.88
2023-05-02T18:53:12.189Z,102908.69
2023-05-02T18:55:40.403Z,102916.25
2023-05-02T18:58:08.265Z,102911.16
2023-05-02T19:00:37.295Z,102912.66
2023-05-02T19:03:06.819Z,102913.00
2023-05-02T19:05:35.164Z,102906.81
2023-05-02T19:08:04.594Z,102911.25
2023-05-02T19:10:32.985Z,102915.75
2023-05-02T19:13:00.812Z,102909.03
2023-05-02T19:15:29.219Z,102910.78
2023-05-02T19:17:58.116Z,102922.09
2023-05-02T19:20:29.434Z,102917.97
2023-05-02T19:23:17.664Z,102918.22
2023-05-02T19:25:46.533Z,102922.44
2023-05-02T19:28:15.768Z,102921.06
2023-05-02T19:30:44.752Z,102928.03
2023-05-02T19:33:12.794Z,102925.78
2023-05-02T19:35:42.764Z,102931.25
2023-05-02T19:38:10.737Z,102930.03
2023-05-02T19:40:38.505Z,102938.56
2023-05-02T19:43:06.545Z,102935.94
2023-05-02T19:45:34.416Z,102934.09
2023-05-02T19:48:02.298Z,102937.69
2023-05-02T19:50:30.594Z,102939.03
2023-05-02T19:53:01.573Z,102940.66
2023-05-02T19:55:30.273Z,102944.25
2023-05-02T19:58:00.077Z,102945.13
2023-05-02T20:00:28.132Z,102932.59
2023-05-02T20:02:56.895Z,102940.78
2023-05-02T20:05:24.798Z,102938.78
2023-05-02T20:07:52.722Z,102938.44
2023-05-02T20:10:22.009Z,102943.53
2023-05-02T20:12:49.926Z,102940.81
2023-05-02T20:15:18.070Z,102945.03
2023-05-02T20:17:47.581Z,102944.03
2023-05-02T20:20:15.818Z,102950.34
2023-05-02T20:22:44.523Z,102961.16
2023-05-02T20:25:14.460Z,102954.09
2023-05-02T20:27:44.094Z,102962.66
2023-05-02T20:30:12.729Z,102972.34
2023-05-02T20:32:41.252Z,102968.03
2023-05-02T20:35:10.418Z,102963.78
2023-05-02T20:37:38.704Z,102969.41
2023-05-02T20:40:10.302Z,102974.59
2023-05-02T20:42:41.324Z,102966.78
2023-05-02T20:45:13.873Z,102980.06
2023-05-02T20:47:41.927Z,102973.63
2023-05-02T20:50:10.730Z,102971.25
2023-05-02T20:52:39.006Z,102977.59
2023-05-02T20:55:08.006Z,102974.72
2023-05-02T20:57:36.295Z,102972.25
2023-05-02T21:00:05.089Z,102979.44
2023-05-02T21:02:34.558Z,102986.47
2023-05-02T21:05:02.644Z,102985.47
2023-05-02T21:07:30.973Z,102986.09
2023-05-02T21:09:59.044Z,102974.28
2023-05-02T21:12:26.892Z,102981.38
2023-05-02T21:14:54.776Z,102981.63
2023-05-02T21:17:22.821Z,102982.47
2023-05-02T21:19:54.064Z,102976.78
2023-05-02T21:22:22.086Z,102975.81
2023-05-02T21:24:50.294Z,102972.69
2023-05-02T21:27:18.369Z,102977.41
2023-05-02T21:29:46.378Z,102981.38
2023-05-02T21:32:14.593Z,102976.53
2023-05-02T21:34:42.447Z,102973.31
2023-05-02T21:37:11.580Z,102965.78
2023-05-02T21:39:39.952Z,102972.88
2023-05-02T21:42:07.919Z,102974.59
2023-05-02T21:44:36.024Z,102976.91
2023-05-02T21:47:04.301Z,102971.59
2023-05-02T21:49:32.333Z,102968.50
2023-05-02T21:52:00.417Z,102968.00
2023-05-02T21:54:29.546Z,102970.16
2023-05-02T21:56:57.717Z,102968.03
2023-05-02T21:59:25.516Z,102971.75
2023-05-02T22:01:53.445Z,102973.47
2023-05-02T22:04:25.090Z,102971.38
2023-05-02T22:06:54.406Z,102980.19
2023-05-02T22:09:22.676Z,102983.31
2023-05-02T22:11:54.297Z,102974.59
2023-05-02T22:14:27.626Z,102973.13
2023-05-02T22:17:04.644Z,102975.00
2023-05-02T22:19:33.991Z,102969.75
2023-05-02T22:22:02.518Z,102967.63
2023-05-02T22:24:30.841Z,102961.53
2023-05-02T22:27:00.383Z,102967.50
2023-05-02T22:29:28.233Z,102967.72
2023-05-02T22:31:56.127Z,102968.81
2023-05-02T22:34:24.092Z,102967.72
2023-05-02T22:36:52.190Z,102969.59
2023-05-02T22:39:20.539Z,102968.38
2023-05-02T22:41:48.350Z,102970.56
2023-05-02T22:44:17.546Z,102977.00
2023-05-02T22:46:45.391Z,102972.81
2023-05-02T22:49:13.216Z,102969.81
2023-05-02T22:51:43.612Z,102977.50
2023-05-02T22:54:11.541Z,102973.78
2023-05-02T22:56:39.797Z,102969.91
2023-05-02T22:59:07.764Z,102977.25
2023-05-02T23:01:36.963Z,102977.47
2023-05-02T23:04:04.921Z,102975.75
2023-05-02T23:06:32.888Z,102969.63
2023-05-02T23:09:00.800Z,102973.34
2023-05-02T23:11:29.585Z,102979.19
2023-05-02T23:13:57.832Z,102975.38
2023-05-02T23:16:25.971Z,102978.09
2023-05-02T23:18:55.889Z,102978.09
2023-05-02T23:21:23.761Z,102974.34
2023-05-02T23:23:51.657Z,102976.94
2023-05-02T23:26:19.484Z,102973.13
2023-05-02T23:28:47.295Z,102973.47
2023-05-02T23:31:15.361Z,102977.72
2023-05-02T23:33:43.386Z,102976.69
2023-05-02T23:36:13.029Z,102977.03
2023-05-02T23:38:41.570Z,102985.94
2023-05-02T23:41:10.965Z,102993.94
2023-05-02T23:43:39.788Z,103003.72
2023-05-02T23:46:07.811Z,102999.72
2023-05-02T23:48:35.639Z,102997.97
2023-05-02T23:51:03.662Z,102994.13
2023-05-02T23:53:33.000Z,102993.25
2023-05-02T23:56:00.893Z,102998.06
2023-05-02T23:58:29.088Z,103005.03
